Country
Station

 

Weather  for  Cervia  -  Italy    Italy

  
28 °C (82 °F)
    
 
 

Current METAR for Cervia is :

LIPC 191655Z 11008KT CAVOK 28/17 Q1014

 

This is a report for Cervia - Italy.
 
The report was made 27 minutes ago, at 16:55 UTC .
The wind was blowing at a speed of 4.1 meters per second (9.2 miles per hour) from east/southeast (110°).
 
The temperature was 28 °C (82 °F), with a dew-point at 17 °C (63 °F).
The temperature felt like 28 °C (83 °F).
 
The atmospheric pressure was 1014 hPa (29.94 inHg).
The relative humidity was 51.3%.
 
There were no clouds below 1500 meter (5000 feet) and no cumulonimbus clouds.
 
The overall visibility was greater than 10 kilometers (6.2 miles).
 

 
 
 
 

Country :   A   B   C   D   E   F   G   H   I   J   K   L   M   N   O   P   Q   R   S   T   U   V   W   Y   Z

 

Site Info  |  Disclaimer  |  Credits  |  Privacy
Contact us  |  Add to favorites
© 2013-2019 METARs - All rights reserved